Time;durP1;ratioP1;P1;durP2;ratioP2;P2;SDS_P1;SDS_P2;PMS_P1;PMS_P2;Temp;Humidity;BMP_temperature;BMP_pressure;BME280_temperature;BME280_humidity;BME280_pressure;Samples;Min_cycle;Max_cycle;Signal;HPM_P1;HPM_P2
2023/07/23 00:01:34;;;;;;;5.00;3.67;;;;;;;15.58;94.43;98129.75;4174155;28;20182;-72
2023/07/23 00:03:35;;;;;;;5.55;3.78;;;;;;;15.61;94.62;98125.34;4174863;28;20044;-72
2023/07/23 00:05:35;;;;;;;5.60;3.95;;;;;;;15.56;95.03;98129.38;4174892;28;20136;-72
2023/07/23 00:07:35;;;;;;;6.85;3.65;;;;;;;15.54;94.68;98131.78;4175223;28;20477;-72
2023/07/23 00:09:36;;;;;;;5.47;3.55;;;;;;;15.53;94.79;98132.19;4174966;28;20445;-72
2023/07/23 00:11:36;;;;;;;6.95;4.40;;;;;;;15.51;95.05;98127.06;4175295;28;20055;-72
2023/07/23 00:13:36;;;;;;;5.07;3.95;;;;;;;15.47;95.51;98115.13;4173955;28;20041;-72
2023/07/23 00:15:37;;;;;;;7.07;4.45;;;;;;;15.48;95.50;98118.75;4174553;28;20037;-72
2023/07/23 00:17:39;;;;;;;5.85;4.10;;;;;;;15.48;95.59;98127.91;4175575;28;20651;-72
2023/07/23 00:19:39;;;;;;;8.47;3.93;;;;;;;15.45;96.63;98115.56;4174626;28;20037;-72
2023/07/23 00:21:39;;;;;;;5.13;3.95;;;;;;;15.43;97.35;98120.78;4174613;28;20049;-72
2023/07/23 00:23:39;;;;;;;5.82;3.72;;;;;;;15.38;97.02;98117.66;4173807;28;20546;-72
2023/07/23 00:25:40;;;;;;;4.65;3.58;;;;;;;15.37;96.97;98116.88;4175042;28;20098;-72
2023/07/23 00:27:40;;;;;;;7.05;3.92;;;;;;;15.38;97.31;98120.44;4174560;28;20056;-72
2023/07/23 00:29:41;;;;;;;6.05;3.90;;;;;;;15.35;97.88;98116.50;4174506;28;20041;-72
2023/07/23 00:31:42;;;;;;;7.25;4.05;;;;;;;15.33;98.13;98110.56;4174747;28;20048;-72
2023/07/23 00:33:42;;;;;;;5.90;4.25;;;;;;;15.29;98.57;98112.59;4171727;28;20127;-72
2023/07/23 00:35:42;;;;;;;5.38;3.85;;;;;;;15.29;97.70;98115.38;4174884;28;20106;-72
2023/07/23 00:37:43;;;;;;;5.35;3.53;;;;;;;15.28;97.67;98118.59;4174635;28;20099;-72
2023/07/23 00:39:43;;;;;;;5.28;3.85;;;;;;;15.28;98.37;98115.81;4174663;28;20078;-72
2023/07/23 00:41:43;;;;;;;7.60;4.00;;;;;;;15.27;97.56;98109.44;4174429;28;20044;-72
2023/07/23 00:43:43;;;;;;;4.93;3.80;;;;;;;15.29;98.17;98114.59;4173397;28;20045;-72
2023/07/23 00:45:44;;;;;;;11.00;4.40;;;;;;;15.24;98.11;98117.88;4175723;28;20523;-72
2023/07/23 00:47:44;;;;;;;4.85;3.53;;;;;;;15.23;98.49;98121.88;4174270;28;20106;-72
2023/07/23 00:49:45;;;;;;;23.88;4.28;;;;;;;15.16;99.14;98115.16;4172622;28;20118;-72
2023/07/23 00:51:45;;;;;;;5.70;4.03;;;;;;;15.14;98.78;98117.59;4174182;28;20120;-72
2023/07/23 00:53:48;;;;;;;5.15;3.97;;;;;;;15.10;99.49;98121.63;4173685;28;20458;-72
2023/07/23 00:55:49;;;;;;;9.40;4.18;;;;;;;15.08;99.66;98124.03;4174544;28;20041;-72
2023/07/23 00:57:49;;;;;;;5.97;4.05;;;;;;;15.02;100.00;98114.56;4174419;28;20041;-72
2023/07/23 00:59:49;;;;;;;5.10;3.95;;;;;;;14.99;99.97;98107.81;4173113;28;20048;-72
2023/07/23 01:01:50;;;;;;;5.88;3.80;;;;;;;15.01;100.00;98110.19;4174026;28;20053;-72
2023/07/23 01:03:51;;;;;;;5.55;3.78;;;;;;;14.98;100.00;98120.16;4172392;28;20097;-72
2023/07/23 01:05:55;;;;;;;6.07;3.55;;;;;;;14.96;100.00;98114.22;4173976;28;20041;-72
2023/07/23 01:07:57;;;;;;;7.90;4.47;;;;;;;14.96;100.00;98116.19;4173012;28;20041;-72
2023/07/23 01:09:59;;;;;;;6.82;4.10;;;;;;;14.96;100.00;98108.63;4174335;28;20088;-72
2023/07/23 01:12:01;;;;;;;5.13;3.85;;;;;;;14.95;100.00;98111.84;4173695;28;20155;-72
2023/07/23 01:14:05;;;;;;;6.75;4.35;;;;;;;14.95;100.00;98106.28;4173135;28;20041;-72
2023/07/23 01:16:08;;;;;;;5.28;3.85;;;;;;;14.97;100.00;98118.56;4173720;28;20033;-72
2023/07/23 01:18:11;;;;;;;5.40;4.05;;;;;;;14.98;100.00;98111.03;4173710;28;20536;-72
2023/07/23 01:20:12;;;;;;;;;;;;;;;15.01;100.00;98110.19;4174422;28;20025;-72
2023/07/23 01:22:12;;;;;;;12.52;4.32;;;;;;;14.98;100.00;98100.69;4173416;28;20257;-72
2023/07/23 01:24:12;;;;;;;6.38;3.78;;;;;;;14.99;100.00;98107.03;4172850;28;20200;-72
2023/07/23 01:26:13;;;;;;;4.47;3.42;;;;;;;14.97;100.00;98112.22;4172823;28;20265;-72
2023/07/23 01:28:13;;;;;;;5.78;3.63;;;;;;;14.98;100.00;98108.25;4173574;28;20266;-72
2023/07/23 01:30:13;;;;;;;5.40;3.95;;;;;;;14.94;100.00;98110.25;4172515;28;20063;-72
2023/07/23 01:32:14;;;;;;;4.72;3.88;;;;;;;14.93;100.00;98111.47;4171506;28;20062;-72
2023/07/23 01:34:14;;;;;;;4.88;3.85;;;;;;;14.91;100.00;98111.91;4172754;28;20093;-72
2023/07/23 01:36:16;;;;;;;6.03;4.03;;;;;;;14.91;100.00;98103.53;4173513;28;20378;-72
2023/07/23 01:38:17;;;;;;;7.03;4.22;;;;;;;14.85;100.00;98105.19;4173956;28;20029;-72
2023/07/23 01:40:17;;;;;;;5.47;4.20;;;;;;;14.77;100.00;98106.47;4173118;28;20317;-72
2023/07/23 01:42:18;;;;;;;7.50;4.13;;;;;;;14.70;100.00;98109.34;4173023;28;20484;-72
2023/07/23 01:44:19;;;;;;;5.97;4.22;;;;;;;14.64;100.00;98105.41;4171567;28;20493;-72
2023/07/23 01:46:20;;;;;;;6.75;4.35;;;;;;;14.60;100.00;98099.91;4173368;28;20040;-72
2023/07/23 01:48:23;;;;;;;10.18;5.50;;;;;;;14.57;100.00;98103.53;4173409;28;20068;-72
2023/07/23 01:50:23;;;;;;;7.93;4.18;;;;;;;14.53;100.00;98109.13;4172991;28;20098;-72
2023/07/23 01:52:24;;;;;;;6.13;4.03;;;;;;;14.49;100.00;98107.59;4173544;28;20041;-72
2023/07/23 01:54:24;;;;;;;6.25;4.05;;;;;;;14.48;100.00;98101.22;4173251;28;20102;-72
2023/07/23 01:56:24;;;;;;;5.25;4.05;;;;;;;14.39;100.00;98098.09;4173297;28;20044;-72
2023/07/23 01:58:25;;;;;;;6.55;3.58;;;;;;;14.32;100.00;98100.97;4172727;28;20051;-72
2023/07/23 02:00:25;;;;;;;7.32;4.30;;;;;;;14.32;100.00;98103.75;4172223;28;20037;-72
2023/07/23 02:02:25;;;;;;;6.55;4.28;;;;;;;14.31;100.00;98102.13;4172277;28;20084;-72
2023/07/23 02:04:26;;;;;;;5.68;4.40;;;;;;;14.28;100.00;98097.41;4172433;28;20554;-72
2023/07/23 02:06:26;;;;;;;8.50;4.13;;;;;;;14.25;100.00;98095.47;4173010;28;20045;-72
2023/07/23 02:08:27;;;;;;;7.10;4.53;;;;;;;14.23;100.00;98101.44;4172515;28;20323;-72
2023/07/23 02:10:27;;;;;;;5.95;4.00;;;;;;;14.17;100.00;98094.72;4172277;28;20051;-72
2023/07/23 02:12:28;;;;;;;9.25;4.30;;;;;;;14.16;100.00;98093.16;4173424;28;20049;-72
2023/07/23 02:14:29;;;;;;;10.15;4.38;;;;;;;14.17;100.00;98093.94;4173109;28;20492;-72
2023/07/23 02:16:29;;;;;;;8.25;4.80;;;;;;;14.17;100.00;98099.50;4172398;28;20072;-72
2023/07/23 02:18:30;;;;;;;6.35;4.63;;;;;;;14.13;100.00;98093.16;4173614;28;20045;-72
2023/07/23 02:20:31;;;;;;;8.05;4.53;;;;;;;14.09;100.00;98092.41;4173558;28;20060;-72
2023/07/23 02:22:34;;;;;;;5.10;4.03;;;;;;;14.12;100.00;98091.59;4172168;28;20087;-72
2023/07/23 02:24:34;;;;;;;6.30;4.13;;;;;;;14.08;100.00;98090.84;4171709;28;20037;-72
2023/07/23 02:26:35;;;;;;;6.90;4.32;;;;;;;14.05;100.00;98090.44;4173200;28;20263;-72
2023/07/23 02:28:35;;;;;;;7.63;4.40;;;;;;;14.09;100.00;98095.22;4172840;28;20049;-72
2023/07/23 02:30:36;;;;;;;9.75;4.68;;;;;;;14.04;100.00;98091.66;4172743;28;20393;-72
2023/07/23 02:32:36;;;;;;;7.68;4.65;;;;;;;14.03;100.00;98095.63;4171865;28;20041;-71
2023/07/23 02:34:36;;;;;;;5.82;3.90;;;;;;;14.05;100.00;98092.44;4173540;28;20141;-72
2023/07/23 02:36:37;;;;;;;7.25;4.50;;;;;;;14.06;100.00;98086.47;4172833;28;20155;-72
2023/07/23 02:38:38;;;;;;;6.30;4.10;;;;;;;14.19;100.00;98086.75;4172891;28;20366;-72
2023/07/23 02:40:38;;;;;;;11.93;4.05;;;;;;;14.31;100.00;98079.88;4173357;28;20053;-72
2023/07/23 02:42:38;;;;;;;7.15;4.20;;;;;;;14.45;100.00;98084.50;4172108;28;20531;-72
2023/07/23 02:44:39;;;;;;;7.05;4.25;;;;;;;14.55;100.00;98080.84;4172474;28;20048;-72
2023/07/23 02:46:39;;;;;;;6.28;4.10;;;;;;;14.58;100.00;98080.84;4173934;28;20056;-72
2023/07/23 02:48:39;;;;;;;8.10;3.47;;;;;;;14.63;100.00;98076.78;4172741;28;20057;-72
2023/07/23 02:50:40;;;;;;;8.98;4.10;;;;;;;14.66;100.00;98072.41;4172918;28;20048;-72
2023/07/23 02:52:40;;;;;;;7.13;4.18;;;;;;;14.65;100.00;98074.41;4171248;28;20636;-72
2023/07/23 02:54:42;;;;;;;6.45;3.90;;;;;;;14.64;100.00;98072.78;4172912;28;20596;-72
2023/07/23 02:56:42;;;;;;;7.88;4.30;;;;;;;14.72;100.00;98071.50;4173129;28;20040;-71
2023/07/23 02:58:42;;;;;;;4.97;3.90;;;;;;;14.75;100.00;98069.91;4172364;28;20547;-72
2023/07/23 03:00:44;;;;;;;6.47;3.38;;;;;;;14.81;99.85;98076.59;4172708;28;20059;-72
2023/07/23 03:02:46;;;;;;;5.75;3.63;;;;;;;14.84;99.56;98071.00;4171869;28;20041;-72
2023/07/23 03:04:46;;;;;;;5.82;3.63;;;;;;;14.89;99.53;98076.09;4172677;28;20037;-72
2023/07/23 03:06:47;;;;;;;5.80;3.70;;;;;;;14.89;99.83;98069.72;4172733;28;20066;-72
2023/07/23 03:08:47;;;;;;;5.15;3.75;;;;;;;14.91;100.00;98070.13;4172250;28;20111;-72
2023/07/23 03:10:47;;;;;;;5.15;3.67;;;;;;;14.89;99.79;98061.38;4173592;28;20132;-72
2023/07/23 03:12:47;;;;;;;6.88;3.95;;;;;;;14.92;99.82;98065.34;4174922;28;20438;-72
2023/07/23 03:14:49;;;;;;;7.63;4.03;;;;;;;14.92;100.00;98060.56;4175991;28;20576;-72
2023/07/23 03:16:49;;;;;;;7.15;3.75;;;;;;;14.93;100.00;98055.78;4175984;28;20408;-72
2023/07/23 03:18:49;;;;;;;7.70;3.90;;;;;;;14.93;99.82;98050.19;4176057;28;20061;-72
2023/07/23 03:20:50;;;;;;;5.43;3.53;;;;;;;14.93;100.00;98053.78;4175352;28;20135;-72
2023/07/23 03:22:50;;;;;;;5.43;3.83;;;;;;;14.96;100.00;98057.72;4175196;28;20045;-72
2023/07/23 03:24:50;;;;;;;9.55;4.32;;;;;;;14.94;100.00;98055.34;4175834;28;20045;-72
2023/07/23 03:26:51;;;;;;;5.65;3.72;;;;;;;14.95;100.00;98062.50;4176093;28;20119;-72
2023/07/23 03:28:51;;;;;;;5.47;3.90;;;;;;;14.94;99.46;98047.00;4175772;28;20033;-72
2023/07/23 03:30:51;;;;;;;6.72;4.20;;;;;;;14.95;98.93;98051.34;4175811;28;20144;-72
2023/07/23 03:32:52;;;;;;;7.03;3.45;;;;;;;14.97;98.22;98051.72;4174662;28;20090;-72
2023/07/23 03:34:53;;;;;;;5.05;3.50;;;;;;;15.06;98.01;98053.97;4175906;28;20159;-72
2023/07/23 03:36:53;;;;;;;5.03;3.35;;;;;;;15.12;97.01;98049.53;4175541;28;20053;-72
2023/07/23 03:38:53;;;;;;;6.15;3.72;;;;;;;15.17;95.75;98047.06;4176050;28;20056;-72
2023/07/23 03:40:54;;;;;;;6.20;3.65;;;;;;;15.26;95.04;98048.56;4175341;28;20422;-72
2023/07/23 03:42:54;;;;;;;5.72;3.67;;;;;;;15.34;95.51;98047.25;4174247;28;20088;-72
2023/07/23 03:44:54;;;;;;;6.63;3.65;;;;;;;15.37;94.13;98049.19;4176673;28;20210;-72
2023/07/23 03:47:10;;;;;;;6.55;3.88;;;;;;;15.45;93.87;98042.28;4176015;28;20041;-72
2023/07/23 03:49:11;;;;;;;9.15;3.80;;;;;;;15.55;92.78;98043.34;4175569;28;20040;-72
2023/07/23 03:51:15;;;;;;;4.72;3.15;;;;;;;15.62;92.77;98040.47;4174908;28;20071;-72
2023/07/23 03:53:15;;;;;;;6.13;4.18;;;;;;;15.65;92.34;98040.44;4174662;28;20125;-72
2023/07/23 03:55:15;;;;;;;6.78;3.70;;;;;;;15.71;91.75;98040.72;4175416;28;20116;-72
2023/07/23 03:57:15;;;;;;;5.40;3.28;;;;;;;15.79;90.85;98044.19;4174970;28;20423;-72
2023/07/23 03:59:16;;;;;;;7.28;4.20;;;;;;;15.84;90.59;98036.13;4175495;28;20124;-72
2023/07/23 04:01:16;;;;;;;5.03;3.50;;;;;;;15.86;91.00;98033.72;4175514;28;20382;-72
2023/07/23 04:03:16;;;;;;;4.70;2.88;;;;;;;15.88;91.39;98027.69;4174331;28;20069;-72
2023/07/23 04:05:17;;;;;;;4.88;3.80;;;;;;;15.98;90.57;98037.91;4174900;28;20041;-72
2023/07/23 04:07:17;;;;;;;6.43;3.60;;;;;;;15.98;88.97;98033.13;4175641;28;20041;-72
2023/07/23 04:09:19;;;;;;;5.13;3.67;;;;;;;16.01;88.93;98029.47;4175271;28;20040;-72
2023/07/23 04:11:19;;;;;;;9.63;3.50;;;;;;;16.04;88.04;98033.41;4175187;28;20045;-72
2023/07/23 04:13:20;;;;;;;6.32;3.60;;;;;;;16.08;88.75;98036.16;4174003;28;20079;-72
2023/07/23 04:15:20;;;;;;;4.30;3.55;;;;;;;16.08;88.21;98034.13;4175348;28;20485;-72
2023/07/23 04:17:20;;;;;;;5.00;3.42;;;;;;;16.11;88.91;98022.13;4175118;28;20488;-72
2023/07/23 04:19:21;;;;;;;4.65;3.20;;;;;;;16.13;88.42;98024.47;4174994;28;20049;-72
2023/07/23 04:21:22;;;;;;;5.82;3.20;;;;;;;16.16;88.35;98021.63;4174993;28;20095;-72
2023/07/23 04:23:23;;;;;;;6.13;3.55;;;;;;;16.19;88.82;98025.56;4173679;28;20045;-72
2023/07/23 04:25:23;;;;;;;4.28;3.38;;;;;;;16.23;87.52;98018.72;4174860;28;20411;-72
2023/07/23 04:27:23;;;;;;;4.70;3.30;;;;;;;16.27;87.66;98018.66;4174862;28;20049;-72
2023/07/23 04:29:24;;;;;;;6.80;3.45;;;;;;;16.31;86.94;98024.19;4174714;28;20068;-72
2023/07/23 04:31:24;;;;;;;6.32;3.20;;;;;;;16.35;86.53;98025.66;4175062;28;20045;-72
2023/07/23 04:33:24;;;;;;;4.20;3.38;;;;;;;16.37;87.17;98019.66;4174005;28;20114;-72
2023/07/23 04:35:25;;;;;;;4.93;3.05;;;;;;;16.40;87.41;98022.41;4174583;28;20308;-72
2023/07/23 04:37:25;;;;;;;5.28;3.63;;;;;;;16.39;86.96;98023.63;4174923;28;20644;-72
2023/07/23 04:39:25;;;;;;;4.43;3.00;;;;;;;16.40;86.88;98010.44;4174112;28;20037;-71
2023/07/23 04:41:27;;;;;;;5.80;3.28;;;;;;;16.44;86.43;98009.13;4174577;28;20037;-72
2023/07/23 04:43:27;;;;;;;4.50;3.03;;;;;;;16.44;86.46;98006.34;4173254;28;20052;-72
2023/07/23 04:45:27;;;;;;;5.72;3.28;;;;;;;16.50;86.00;98017.81;4174527;28;20045;-72
2023/07/23 04:47:28;;;;;;;5.30;3.22;;;;;;;16.60;86.17;98014.00;4174952;28;20102;-72
2023/07/23 04:49:28;;;;;;;5.05;2.90;;;;;;;16.66;86.12;98015.09;4173378;28;20429;-71
2023/07/23 04:51:28;;;;;;;7.80;3.53;;;;;;;16.67;85.35;98013.88;4174532;28;20531;-72
2023/07/23 04:53:29;;;;;;;5.22;3.47;;;;;;;16.70;85.41;98009.47;4173691;28;20400;-72
2023/07/23 04:55:29;;;;;;;6.10;3.97;;;;;;;16.72;85.06;98009.84;4173503;28;20045;-72
2023/07/23 04:57:29;;;;;;;5.38;3.47;;;;;;;16.80;84.57;98003.66;4174430;28;20041;-71
2023/07/23 04:59:30;;;;;;;6.00;3.40;;;;;;;16.80;84.96;98011.25;4174481;28;20037;-72
2023/07/23 05:01:30;;;;;;;6.38;3.40;;;;;;;16.85;84.53;98005.94;4174015;28;20049;-72
2023/07/23 05:03:30;;;;;;;3.92;3.13;;;;;;;16.88;84.54;98001.53;4173686;28;20560;-72
2023/07/23 05:05:31;;;;;;;4.55;3.30;;;;;;;16.96;83.72;98007.72;4174205;28;20033;-71
2023/07/23 05:07:31;;;;;;;4.70;3.35;;;;;;;17.04;83.99;98009.13;4174451;28;20059;-71
2023/07/23 05:09:32;;;;;;;5.43;3.33;;;;;;;17.06;83.48;98009.50;4174008;28;20044;-72
2023/07/23 05:11:32;;;;;;;5.78;3.15;;;;;;;17.11;82.97;98008.97;4173578;28;20048;-72
2023/07/23 05:13:34;;;;;;;8.77;3.58;;;;;;;17.16;83.04;98010.50;4173767;28;20141;-72
2023/07/23 05:15:35;;;;;;;5.60;3.30;;;;;;;17.19;82.99;98006.81;4174177;28;20045;-72
2023/07/23 05:17:35;;;;;;;4.90;3.10;;;;;;;17.22;82.85;98006.75;4173943;28;20090;-72
2023/07/23 05:19:35;;;;;;;5.15;3.30;;;;;;;17.25;83.04;98000.28;4174269;28;20045;-72
2023/07/23 05:21:36;;;;;;;5.28;3.30;;;;;;;17.29;82.58;98009.38;4173866;28;20120;-72
2023/07/23 05:23:37;;;;;;;5.10;2.63;;;;;;;17.41;82.30;98000.31;4173005;28;20113;-71
2023/07/23 05:25:37;;;;;;;4.22;2.85;;;;;;;17.55;81.52;98004.00;4173353;28;20041;-72
2023/07/23 05:27:38;;;;;;;4.05;3.05;;;;;;;17.71;81.20;97997.63;4174433;28;20076;-72
2023/07/23 05:29:38;;;;;;;5.00;3.00;;;;;;;17.81;81.31;97993.78;4172974;28;20048;-72
2023/07/23 05:31:39;;;;;;;6.07;3.15;;;;;;;17.98;79.92;97991.78;4172642;28;20077;-72
2023/07/23 05:33:39;;;;;;;5.45;4.03;;;;;;;18.08;80.36;97993.50;4172195;28;20393;-72
2023/07/23 05:35:39;;;;;;;5.22;2.78;;;;;;;18.19;79.54;97999.59;4173648;28;20543;-72
2023/07/23 05:37:39;;;;;;;6.68;3.40;;;;;;;18.24;79.40;97988.66;4173837;28;20056;-72
2023/07/23 05:39:40;;;;;;;5.80;3.13;;;;;;;18.32;78.62;97977.25;4173123;28;20170;-72
2023/07/23 05:41:40;;;;;;;6.60;3.30;;;;;;;18.41;78.27;97975.38;4173533;28;20045;-72
2023/07/23 05:43:40;;;;;;;4.38;3.05;;;;;;;18.58;78.43;97978.13;4172774;28;20053;-72
2023/07/23 05:45:41;;;;;;;4.78;3.60;;;;;;;18.68;78.16;97983.44;4172815;28;20045;-72
2023/07/23 05:47:41;;;;;;;3.70;2.95;;;;;;;18.70;77.93;97985.81;4173504;28;20111;-72
2023/07/23 05:49:41;;;;;;;4.72;3.00;;;;;;;18.77;77.18;97969.56;4173272;28;20066;-72
2023/07/23 05:51:42;;;;;;;3.70;2.80;;;;;;;18.89;77.10;97978.47;4173095;28;20040;-72
2023/07/23 05:53:42;;;;;;;3.70;3.05;;;;;;;18.92;77.21;97969.94;4172260;28;20503;-72
2023/07/23 05:55:43;;;;;;;5.28;3.65;;;;;;;18.96;77.26;97976.25;4172890;28;20041;-72
2023/07/23 05:57:43;;;;;;;4.75;2.72;;;;;;;19.03;76.09;97978.00;4172757;28;20221;-72
2023/07/23 05:59:43;;;;;;;3.55;2.70;;;;;;;19.05;76.71;97965.16;4173573;28;20315;-72
2023/07/23 06:01:44;;;;;;;4.70;3.17;;;;;;;19.21;77.06;97974.69;4172722;28;20033;-72
2023/07/23 06:03:44;;;;;;;4.30;3.20;;;;;;;19.31;76.37;97974.34;4171562;28;20049;-72
2023/07/23 06:05:44;;;;;;;6.30;3.13;;;;;;;19.46;74.93;97974.69;4173446;28;20345;-72
2023/07/23 06:07:44;;;;;;;3.38;2.67;;;;;;;19.57;74.57;97977.94;4173541;28;20561;-72
2023/07/23 06:09:45;;;;;;;3.88;3.22;;;;;;;19.63;74.19;97964.16;4172438;28;20550;-72
2023/07/23 06:11:45;;;;;;;4.20;3.15;;;;;;;19.79;72.41;97964.00;4172828;28;20139;-72
2023/07/23 06:13:45;;;;;;;6.65;3.33;;;;;;;19.91;72.13;97965.19;4172368;28;20154;-72
2023/07/23 06:15:46;;;;;;;4.47;2.95;;;;;;;19.99;71.61;97963.72;4173006;28;20041;-72
2023/07/23 06:17:46;;;;;;;3.70;2.75;;;;;;;20.05;71.90;97964.72;4172943;28;20504;-72
2023/07/23 06:19:47;;;;;;;6.28;3.42;;;;;;;20.14;71.79;97961.22;4173470;28;20439;-72
2023/07/23 06:21:47;;;;;;;5.63;3.17;;;;;;;20.25;71.05;97958.00;4172712;28;20045;-72
2023/07/23 06:23:48;;;;;;;4.00;2.78;;;;;;;20.41;70.04;97966.25;4171244;28;20037;-72
2023/07/23 06:25:55;;;;;;;6.50;3.28;;;;;;;20.48;69.86;97963.22;4173498;28;20355;-72
2023/07/23 06:27:55;;;;;;;8.90;3.33;;;;;;;20.55;69.60;97965.00;4173221;28;20037;-72
2023/07/23 06:29:56;;;;;;;4.03;2.90;;;;;;;20.65;69.01;97966.63;4173025;28;20565;-72
2023/07/23 06:31:57;;;;;;;6.47;3.13;;;;;;;20.78;68.21;97967.34;4172641;28;20045;-72
2023/07/23 06:33:57;;;;;;;16.50;4.10;;;;;;;20.84;68.08;97961.88;4171091;28;20036;-72
2023/07/23 06:35:58;;;;;;;5.07;2.85;;;;;;;20.90;68.42;97960.84;4171509;28;20072;-72
2023/07/23 06:37:58;;;;;;;10.60;4.00;;;;;;;21.06;67.52;97959.84;4172238;28;20040;-72
2023/07/23 06:39:58;;;;;;;4.70;3.00;;;;;;;21.23;66.90;97961.16;4126991;28;20048;-72
2023/07/23 06:41:59;;;;;;;4.78;2.85;;;;;;;21.39;66.84;97959.38;4166468;28;20075;-72
2023/07/23 06:43:59;;;;;;;3.67;2.88;;;;;;;21.46;66.76;97951.44;4171601;28;20448;-72
2023/07/23 06:45:59;;;;;;;5.15;2.75;;;;;;;21.54;65.72;97949.91;4177049;28;20033;-72
2023/07/23 06:48:00;;;;;;;5.32;3.03;;;;;;;21.65;65.39;97957.13;4178342;28;20048;-72
2023/07/23 06:50:00;;;;;;;3.88;3.13;;;;;;;21.63;64.82;97946.31;4177262;28;20056;-72
2023/07/23 06:52:00;;;;;;;4.28;3.13;;;;;;;21.53;65.03;97951.16;4178187;28;20096;-72
2023/07/23 06:54:01;;;;;;;3.88;2.80;;;;;;;21.57;65.29;97953.81;4177257;28;20099;-72
2023/07/23 06:56:08;;;;;;;4.00;2.60;;;;;;;21.65;63.97;97949.44;4177838;28;20040;-72
2023/07/23 06:58:08;;;;;;;3.97;2.55;;;;;;;21.68;63.70;97947.72;4171606;28;20083;-72
2023/07/23 07:00:09;;;;;;;7.05;3.28;;;;;;;21.71;64.12;97958.84;4172985;28;20497;-72
2023/07/23 07:02:09;;;;;;;7.70;3.53;;;;;;;21.81;64.80;97945.56;4173450;28;20033;-72
2023/07/23 07:04:10;;;;;;;4.78;3.22;;;;;;;21.79;63.79;97948.09;4177180;28;20033;-72
2023/07/23 07:06:10;;;;;;;4.07;3.03;;;;;;;21.93;64.40;97943.88;4177283;28;20070;-72
2023/07/23 07:08:11;;;;;;;4.30;2.92;;;;;;;22.00;64.76;97955.59;4178344;28;20031;-72
2023/07/23 07:10:12;;;;;;;7.18;3.10;;;;;;;22.12;65.64;97954.72;4178121;28;20032;-72
2023/07/23 07:12:12;;;;;;;3.60;3.03;;;;;;;22.37;61.92;97948.00;4176739;28;20025;-72
2023/07/23 07:14:12;;;;;;;3.75;2.80;;;;;;;22.50;63.38;97936.53;4176976;28;20469;-72
2023/07/23 07:16:13;;;;;;;2.97;2.67;;;;;;;22.60;63.14;97934.53;4177537;28;20103;-72
2023/07/23 07:18:13;;;;;;;7.43;3.05;;;;;;;22.82;63.13;97931.47;4178505;28;20021;-72
2023/07/23 07:20:14;;;;;;;3.60;2.70;;;;;;;22.99;62.44;97927.84;4178112;28;20142;-72
2023/07/23 07:22:15;;;;;;;3.17;2.50;;;;;;;23.11;61.30;97926.09;4177513;28;20492;-72
2023/07/23 07:24:16;;;;;;;4.60;2.67;;;;;;;23.18;60.53;97939.88;4177532;28;20319;-72
2023/07/23 07:26:17;;;;;;;4.28;2.95;;;;;;;23.21;60.71;97933.25;4177865;28;20078;-72
2023/07/23 07:28:17;;;;;;;3.72;2.65;;;;;;;23.28;62.17;97932.16;4177621;28;20078;-72
2023/07/23 07:30:17;;;;;;;5.65;2.95;;;;;;;23.33;60.89;97939.16;4177714;28;20068;-72
2023/07/23 07:32:18;;;;;;;4.43;2.63;;;;;;;23.19;60.44;97932.19;4178243;28;20024;-73
2023/07/23 07:34:18;;;;;;;3.95;3.05;;;;;;;23.03;61.37;97938.19;4175862;28;20068;-72
2023/07/23 07:36:19;;;;;;;5.43;2.85;;;;;;;22.85;62.08;97934.19;4177518;28;20108;-73
2023/07/23 07:38:19;;;;;;;5.18;2.80;;;;;;;22.75;61.76;97940.25;4178307;28;20393;-72
2023/07/23 07:40:19;;;;;;;5.13;2.58;;;;;;;22.65;62.24;97940.28;4177047;28;20244;-72
2023/07/23 07:42:19;;;;;;;4.82;2.65;;;;;;;22.63;62.59;97934.34;4178249;28;20029;-72
2023/07/23 07:44:20;;;;;;;3.95;2.80;;;;;;;22.56;63.35;97936.69;4176701;28;20679;-72
2023/07/23 07:46:20;;;;;;;6.35;2.60;;;;;;;22.54;62.75;97936.41;4178510;28;20045;-72
2023/07/23 07:48:21;;;;;;;3.58;2.80;;;;;;;22.38;62.85;97931.88;4177958;28;20443;-72
2023/07/23 07:50:21;;;;;;;7.05;3.20;;;;;;;22.32;63.16;97931.72;4176927;28;20052;-72
2023/07/23 07:52:21;;;;;;;7.57;2.67;;;;;;;22.22;63.91;97941.41;4177822;28;20017;-72
2023/07/23 07:54:22;;;;;;;6.30;2.88;;;;;;;22.20;63.59;97935.47;4176283;28;20053;-72
2023/07/23 07:56:22;;;;;;;4.65;2.80;;;;;;;22.12;65.32;97943.47;4174598;28;20037;-72
2023/07/23 07:58:27;;;;;;;4.15;3.00;;;;;;;22.09;65.11;97933.13;4172618;28;20079;-72
2023/07/23 08:00:27;;;;;;;5.90;3.00;;;;;;;21.96;65.65;97934.50;4174973;28;20124;-72
2023/07/23 08:02:28;;;;;;;5.15;2.92;;;;;;;21.75;66.25;97933.34;4174951;28;20072;-72
2023/07/23 08:04:29;;;;;;;4.00;3.15;;;;;;;21.81;66.37;97928.69;4174061;28;20056;-72
2023/07/23 08:06:30;;;;;;;4.75;2.95;;;;;;;21.81;65.82;97923.84;4173428;28;20370;-72
2023/07/23 08:08:33;;;;;;;3.40;2.70;;;;;;;21.85;67.27;97915.25;4174422;28;20056;-72
2023/07/23 08:10:36;;;;;;;3.42;2.65;;;;;;;21.94;66.57;97925.75;4174922;28;20040;-72
2023/07/23 08:12:38;;;;;;;4.07;2.53;;;;;;;21.95;66.78;97932.94;4172774;28;20048;-72
2023/07/23 08:14:39;;;;;;;6.28;2.88;;;;;;;21.88;67.26;97926.34;4167597;28;20076;-72
2023/07/23 08:16:40;;;;;;;5.28;3.42;;;;;;;21.86;67.82;97933.72;4171685;28;20111;-72
2023/07/23 08:18:40;;;;;;;9.38;3.40;;;;;;;21.86;67.78;97926.03;4173120;28;20049;-72
2023/07/23 08:20:42;;;;;;;3.83;2.75;;;;;;;21.82;67.49;97924.63;4168214;28;20053;-72
2023/07/23 08:22:42;;;;;;;5.75;3.20;;;;;;;21.79;66.72;97917.13;4171237;28;20049;-72
2023/07/23 08:24:43;;;;;;;5.57;2.88;;;;;;;21.78;66.86;97924.00;4168841;28;20120;-72
2023/07/23 08:26:47;;;;;;;7.03;3.20;;;;;;;21.76;67.23;97929.28;4167957;28;20056;-72
2023/07/23 08:28:56;;;;;;;9.95;2.90;;;;;;;21.80;67.98;97910.22;4172133;28;20052;-72
2023/07/23 08:30:57;;;;;;;3.92;2.83;;;;;;;21.76;67.86;97921.66;4173064;28;20147;-72
2023/07/23 08:33:00;;;;;;;4.78;3.08;;;;;;;21.80;66.87;97925.09;4171981;28;20401;-72
2023/07/23 08:35:00;;;;;;;3.92;3.10;;;;;;;21.86;65.77;97911.19;4173039;28;20040;-72
2023/07/23 08:37:01;;;;;;;3.83;2.78;;;;;;;21.90;66.57;97911.00;4174424;28;20057;-72
2023/07/23 08:39:02;;;;;;;4.55;3.03;;;;;;;22.00;66.80;97916.19;4174428;28;20052;-72
2023/07/23 08:41:03;;;;;;;4.97;3.00;;;;;;;22.06;66.51;97897.41;4174913;28;20651;-72
2023/07/23 08:43:41;;;;;;;5.07;3.20;;;;;;;22.15;65.93;97903.06;4172249;28;20472;-72
2023/07/23 08:46:13;;;;;;;4.07;3.30;;;;;;;22.32;65.94;97908.38;4175375;28;20056;-72
2023/07/23 08:48:19;;;;;;;4.88;2.90;;;;;;;22.50;66.09;97893.47;4173350;28;20041;-72
2023/07/23 08:50:20;;;;;;;4.68;2.63;;;;;;;22.57;65.68;97885.47;4174487;28;20040;-72
2023/07/23 08:52:22;;;;;;;7.57;3.17;;;;;;;22.66;64.76;97882.63;4174663;28;20045;-72
2023/07/23 08:54:23;;;;;;;3.58;3.00;;;;;;;22.56;65.43;97878.28;4174287;28;20048;-72
2023/07/23 08:56:23;;;;;;;4.93;2.90;;;;;;;22.66;65.29;97873.41;4174587;28;20377;-72
2023/07/23 08:58:23;;;;;;;6.70;2.85;;;;;;;22.78;63.97;97886.53;4174767;28;20053;-72
2023/07/23 09:00:27;;;;;;;6.25;2.70;;;;;;;22.78;63.35;97880.91;4174648;28;20120;-72
2023/07/23 09:02:28;;;;;;;6.78;2.72;;;;;;;22.91;61.95;97883.53;4172934;28;20037;-72
2023/07/23 09:04:29;;;;;;;4.10;2.53;;;;;;;22.96;62.12;97877.25;4172383;28;20045;-72
2023/07/23 09:06:30;;;;;;;3.50;2.17;;;;;;;23.01;59.61;97868.16;4174057;28;20397;-72
2023/07/23 09:08:31;;;;;;;8.82;2.80;;;;;;;22.97;59.56;97868.31;4172880;28;20098;-72
2023/07/23 09:10:31;;;;;;;6.20;2.85;;;;;;;22.92;59.46;97871.00;4174101;28;20029;-72
2023/07/23 09:12:32;;;;;;;5.78;2.42;;;;;;;23.03;58.92;97874.09;4170810;28;20077;-72
2023/07/23 09:14:42;;;;;;;5.00;2.50;;;;;;;23.15;60.07;97867.44;4172469;28;20051;-72
2023/07/23 09:16:45;;;;;;;3.53;2.30;;;;;;;23.35;58.60;97858.41;4169281;28;20041;-72
2023/07/23 09:18:45;;;;;;;5.32;2.55;;;;;;;23.44;59.08;97866.06;4172458;28;20072;-72
2023/07/23 09:20:49;;;;;;;5.25;2.75;;;;;;;23.45;58.62;97859.13;4174042;28;20462;-72
2023/07/23 09:22:49;;;;;;;7.47;3.05;;;;;;;23.49;57.40;97866.16;4171411;28;20048;-72
2023/07/23 09:24:57;;;;;;;4.18;2.55;;;;;;;23.58;55.85;97864.53;4172724;28;20056;-72
2023/07/23 09:26:58;;;;;;;3.53;2.50;;;;;;;23.53;54.96;97861.13;4173905;28;20053;-72
2023/07/23 09:29:03;;;;;;;6.47;2.75;;;;;;;23.57;56.81;97865.78;4172443;28;20456;-72